ALK175 VCBI-VOHS
Flight info
| Callsign | ALK175 |
|---|---|
| Flight time | 1h 32m |
| Altitude | 39000 |
| Route | SAGOR A465 MMV/N0440F380 Q24 KAMGU W20 LEDOB LEDOB6 |
| Aircraft | A20N/M-SDE2E3FGHIRWXY/LB1 |
Departure
| Time | 2026-05-07 10:45 |
|---|---|
| Airport | Bandaranaike International Colombo Airport (VCBI) |
Arrival
| Time | 2026-05-07 12:17 |
|---|---|
| Airport | Rajiv Gandhi International Airport (VOHS) |
| Time | Latitude | Longitude | Altitude | Speed | Heading |
|---|---|---|---|---|---|
| 2026-05-07 10:35 | 7.17683 | 79.88665 | 27 ft | 0 kts | 312° |
| 2026-05-07 10:36 | 7.17689 | 79.88658 | 27 ft | 0 kts | 312° |
| 2026-05-07 10:38 | 7.17691 | 79.88656 | 27 ft | 0 kts | 313° |
| 2026-05-07 10:40 | 7.17692 | 79.88655 | 27 ft | 0 kts | 313° |
| 2026-05-07 10:41 | 7.17696 | 79.88650 | 27 ft | 4 kts | 312° |
| 2026-05-07 10:41 | 7.17746 | 79.88585 | 27 ft | 18 kts | 306° |
| 2026-05-07 10:41 | 7.17817 | 79.88488 | 27 ft | 15 kts | 306° |
| 2026-05-07 10:41 | 7.17891 | 79.88436 | 27 ft | 13 kts | 2° |
| 2026-05-07 10:42 | 7.17943 | 79.88476 | 27 ft | 11 kts | 37° |
| 2026-05-07 10:42 | 7.18020 | 79.88529 | 27 ft | 16 kts | 33° |
| 2026-05-07 10:42 | 7.18121 | 79.88606 | 27 ft | 20 kts | 37° |
| 2026-05-07 10:42 | 7.18199 | 79.88662 | 27 ft | 10 kts | 33° |
| 2026-05-07 10:43 | 7.18264 | 79.88708 | 27 ft | 16 kts | 36° |
| 2026-05-07 10:43 | 7.18371 | 79.88789 | 27 ft | 15 kts | 47° |
| 2026-05-07 10:43 | 7.18461 | 79.88867 | 27 ft | 18 kts | 37° |
| 2026-05-07 10:43 | 7.18563 | 79.88940 | 27 ft | 17 kts | 24° |
| 2026-05-07 10:44 | 7.18655 | 79.88897 | 28 ft | 16 kts | 317° |
| 2026-05-07 10:44 | 7.18703 | 79.88834 | 29 ft | 10 kts | 259° |
| 2026-05-07 10:44 | 7.18640 | 79.88772 | 29 ft | 31 kts | 217° |
| 2026-05-07 10:44 | 7.18234 | 79.88463 | 27 ft | 117 kts | 216° |
| 2026-05-07 10:45 | 7.17383 | 79.87830 | 205 ft | 170 kts | 217° |
| 2026-05-07 10:45 | 7.16434 | 79.87131 | 1034 ft | 175 kts | 218° |
| 2026-05-07 10:45 | 7.15472 | 79.86379 | 2039 ft | 169 kts | 218° |
| 2026-05-07 10:45 | 7.14554 | 79.85574 | 2593 ft | 188 kts | 231° |
| 2026-05-07 10:46 | 7.13989 | 79.84317 | 3050 ft | 213 kts | 262° |
| 2026-05-07 10:46 | 7.14226 | 79.82779 | 3592 ft | 238 kts | 294° |
| 2026-05-07 10:46 | 7.15322 | 79.81436 | 4135 ft | 263 kts | 324° |
| 2026-05-07 10:46 | 7.17060 | 79.80730 | 4839 ft | 277 kts | 353° |
| 2026-05-07 10:47 | 7.18972 | 79.80894 | 5840 ft | 278 kts | 15° |
| 2026-05-07 10:47 | 7.20832 | 79.81444 | 6797 ft | 280 kts | 17° |
| 2026-05-07 10:47 | 7.22724 | 79.81956 | 7702 ft | 284 kts | 13° |
| 2026-05-07 10:47 | 7.24674 | 79.82337 | 8607 ft | 287 kts | 9° |
| 2026-05-07 10:48 | 7.26668 | 79.82608 | 9533 ft | 291 kts | 7° |
| 2026-05-07 10:48 | 7.28693 | 79.82821 | 10325 ft | 297 kts | 5° |
| 2026-05-07 10:48 | 7.30833 | 79.83021 | 10662 ft | 320 kts | 5° |
| 2026-05-07 10:48 | 7.33134 | 79.83226 | 10936 ft | 343 kts | 5° |
| 2026-05-07 10:49 | 7.35541 | 79.83444 | 11576 ft | 350 kts | 5° |
| 2026-05-07 10:49 | 7.37979 | 79.83666 | 12333 ft | 354 kts | 4° |
| 2026-05-07 10:49 | 7.40449 | 79.83895 | 13070 ft | 359 kts | 4° |
| 2026-05-07 10:49 | 7.42952 | 79.84129 | 13784 ft | 363 kts | 4° |
| 2026-05-07 10:50 | 7.45484 | 79.84364 | 14440 ft | 367 kts | 4° |
| 2026-05-07 10:50 | 7.48039 | 79.84600 | 15108 ft | 370 kts | 4° |
| 2026-05-07 10:50 | 7.50613 | 79.84839 | 15749 ft | 374 kts | 4° |
| 2026-05-07 10:50 | 7.53220 | 79.85080 | 16385 ft | 377 kts | 4° |
| 2026-05-07 10:51 | 7.55849 | 79.85323 | 16988 ft | 381 kts | 4° |
| 2026-05-07 10:51 | 7.58503 | 79.85569 | 17580 ft | 385 kts | 4° |
| 2026-05-07 10:51 | 7.61186 | 79.85817 | 18143 ft | 389 kts | 4° |
| 2026-05-07 10:51 | 7.63891 | 79.86066 | 18681 ft | 391 kts | 4° |
| 2026-05-07 10:52 | 7.66607 | 79.86317 | 19221 ft | 394 kts | 4° |
| 2026-05-07 10:52 | 7.69346 | 79.86565 | 19739 ft | 397 kts | 4° |
| 2026-05-07 10:52 | 7.72101 | 79.86817 | 20257 ft | 399 kts | 4° |
| 2026-05-07 10:52 | 7.74879 | 79.87073 | 20770 ft | 402 kts | 4° |
| 2026-05-07 10:53 | 7.77674 | 79.87335 | 21280 ft | 405 kts | 4° |
| 2026-05-07 10:53 | 7.80491 | 79.87603 | 21767 ft | 408 kts | 4° |
| 2026-05-07 10:53 | 7.83327 | 79.87869 | 22266 ft | 411 kts | 4° |
| 2026-05-07 10:53 | 7.86186 | 79.88136 | 22752 ft | 414 kts | 4° |
| 2026-05-07 10:54 | 7.89065 | 79.88407 | 23223 ft | 417 kts | 4° |
| 2026-05-07 10:54 | 7.91962 | 79.88678 | 23649 ft | 420 kts | 4° |
| 2026-05-07 10:54 | 7.94880 | 79.88951 | 24052 ft | 422 kts | 4° |
| 2026-05-07 10:54 | 7.97812 | 79.89224 | 24457 ft | 425 kts | 4° |
| 2026-05-07 10:55 | 8.00762 | 79.89498 | 24836 ft | 427 kts | 4° |
| 2026-05-07 10:55 | 8.03733 | 79.89774 | 25213 ft | 430 kts | 4° |
| 2026-05-07 10:55 | 8.06720 | 79.90053 | 25583 ft | 432 kts | 5° |
| 2026-05-07 10:55 | 8.09725 | 79.90334 | 25939 ft | 435 kts | 5° |
| 2026-05-07 10:56 | 8.12751 | 79.90602 | 26288 ft | 438 kts | 2° |
| 2026-05-07 10:56 | 8.15803 | 79.90513 | 26617 ft | 440 kts | 356° |
| 2026-05-07 10:56 | 8.18909 | 79.90313 | 26947 ft | 443 kts | 356° |
| 2026-05-07 10:56 | 8.21954 | 79.90117 | 27281 ft | 445 kts | 356° |
| 2026-05-07 10:57 | 8.25047 | 79.89909 | 27596 ft | 448 kts | 356° |
| 2026-05-07 10:57 | 8.28218 | 79.89691 | 27919 ft | 451 kts | 356° |
| 2026-05-07 10:57 | 8.31355 | 79.89473 | 28228 ft | 454 kts | 356° |
| 2026-05-07 10:57 | 8.34515 | 79.89251 | 28541 ft | 456 kts | 356° |
| 2026-05-07 10:58 | 8.37688 | 79.89029 | 28837 ft | 458 kts | 356° |
| 2026-05-07 10:58 | 8.40872 | 79.88806 | 29120 ft | 461 kts | 356° |
| 2026-05-07 10:58 | 8.44083 | 79.88582 | 29411 ft | 463 kts | 356° |
| 2026-05-07 10:58 | 8.47305 | 79.88357 | 29706 ft | 465 kts | 356° |
| 2026-05-07 10:59 | 8.50543 | 79.88131 | 29992 ft | 467 kts | 356° |
| 2026-05-07 10:59 | 8.53795 | 79.87903 | 30234 ft | 470 kts | 356° |
| 2026-05-07 10:59 | 8.57059 | 79.87675 | 30500 ft | 472 kts | 356° |
| 2026-05-07 10:59 | 8.60345 | 79.87446 | 30777 ft | 473 kts | 356° |
| 2026-05-07 11:00 | 8.63630 | 79.87216 | 31103 ft | 474 kts | 356° |
| 2026-05-07 11:00 | 8.66914 | 79.86986 | 31452 ft | 473 kts | 356° |
| 2026-05-07 11:00 | 8.70197 | 79.86756 | 31806 ft | 473 kts | 356° |
| 2026-05-07 11:00 | 8.73478 | 79.86526 | 32179 ft | 472 kts | 356° |
| 2026-05-07 11:01 | 8.76751 | 79.86297 | 32535 ft | 471 kts | 356° |
| 2026-05-07 11:01 | 8.80019 | 79.86068 | 32882 ft | 470 kts | 356° |
| 2026-05-07 11:01 | 8.83282 | 79.85840 | 33224 ft | 470 kts | 357° |
| 2026-05-07 11:01 | 8.86541 | 79.85613 | 33558 ft | 469 kts | 357° |
| 2026-05-07 11:02 | 8.89793 | 79.85385 | 33866 ft | 468 kts | 357° |
| 2026-05-07 11:02 | 8.93041 | 79.85158 | 34139 ft | 468 kts | 357° |
| 2026-05-07 11:02 | 8.96294 | 79.84930 | 34391 ft | 468 kts | 357° |
| 2026-05-07 11:02 | 8.99543 | 79.84703 | 34646 ft | 468 kts | 357° |
| 2026-05-07 11:03 | 9.02790 | 79.84476 | 34888 ft | 468 kts | 357° |
| 2026-05-07 11:03 | 9.06042 | 79.84248 | 35129 ft | 468 kts | 357° |
| 2026-05-07 11:03 | 9.09295 | 79.84020 | 35367 ft | 469 kts | 357° |
| 2026-05-07 11:03 | 9.12550 | 79.83792 | 35614 ft | 469 kts | 357° |
| 2026-05-07 11:04 | 9.15800 | 79.83565 | 35868 ft | 469 kts | 357° |
| 2026-05-07 11:04 | 9.19054 | 79.83337 | 36119 ft | 468 kts | 357° |
| 2026-05-07 11:04 | 9.22342 | 79.83106 | 36375 ft | 468 kts | 357° |
| 2026-05-07 11:04 | 9.24501 | 79.82955 | 36538 ft | 468 kts | 357° |
| 2026-05-07 11:05 | 9.27752 | 79.82727 | 36793 ft | 468 kts | 357° |
| 2026-05-07 11:05 | 9.30999 | 79.82499 | 37030 ft | 468 kts | 357° |
| 2026-05-07 11:05 | 9.34249 | 79.82271 | 37272 ft | 468 kts | 357° |
| 2026-05-07 11:05 | 9.37495 | 79.82044 | 37509 ft | 468 kts | 357° |
| 2026-05-07 11:06 | 9.40742 | 79.81816 | 37763 ft | 467 kts | 357° |
| 2026-05-07 11:06 | 9.43986 | 79.81589 | 37972 ft | 467 kts | 358° |
| 2026-05-07 11:06 | 9.50438 | 79.81136 | 37753 ft | 461 kts | 357° |
| 2026-05-07 11:07 | 9.56879 | 79.80684 | 37752 ft | 468 kts | 357° |
| 2026-05-07 11:07 | 9.63353 | 79.80230 | 37748 ft | 466 kts | 357° |
| 2026-05-07 11:08 | 9.69826 | 79.79775 | 37753 ft | 467 kts | 357° |
| 2026-05-07 11:08 | 9.76318 | 79.79318 | 37760 ft | 468 kts | 357° |
| 2026-05-07 11:09 | 9.82805 | 79.78862 | 37762 ft | 468 kts | 357° |
| 2026-05-07 11:09 | 9.89310 | 79.78405 | 37759 ft | 469 kts | 357° |
| 2026-05-07 11:10 | 9.95859 | 79.77945 | 37763 ft | 469 kts | 357° |
| 2026-05-07 11:10 | 10.02365 | 79.77480 | 37767 ft | 469 kts | 357° |
| 2026-05-07 11:11 | 10.08807 | 79.77025 | 37763 ft | 469 kts | 357° |
| 2026-05-07 11:11 | 10.15334 | 79.76566 | 37757 ft | 469 kts | 357° |
| 2026-05-07 11:12 | 10.21842 | 79.76108 | 37762 ft | 469 kts | 357° |
| 2026-05-07 11:12 | 10.28356 | 79.75650 | 37766 ft | 469 kts | 357° |
| 2026-05-07 11:13 | 10.34866 | 79.75199 | 37764 ft | 469 kts | 357° |
| 2026-05-07 11:13 | 10.41376 | 79.74745 | 37757 ft | 469 kts | 357° |
| 2026-05-07 11:14 | 10.47883 | 79.74286 | 37758 ft | 469 kts | 357° |
| 2026-05-07 11:14 | 10.54389 | 79.73826 | 37760 ft | 468 kts | 357° |
| 2026-05-07 11:15 | 10.60888 | 79.73367 | 37763 ft | 468 kts | 357° |
| 2026-05-07 11:15 | 10.67385 | 79.72908 | 37765 ft | 468 kts | 356° |
| 2026-05-07 11:16 | 10.73886 | 79.72444 | 37758 ft | 468 kts | 357° |
| 2026-05-07 11:16 | 10.80380 | 79.71988 | 37755 ft | 468 kts | 357° |
| 2026-05-07 11:17 | 10.86873 | 79.71530 | 37756 ft | 468 kts | 357° |
| 2026-05-07 11:17 | 10.93364 | 79.71070 | 37753 ft | 468 kts | 357° |
| 2026-05-07 11:18 | 10.99854 | 79.70611 | 37759 ft | 467 kts | 357° |
| 2026-05-07 11:18 | 11.06345 | 79.70151 | 37754 ft | 467 kts | 357° |
| 2026-05-07 11:19 | 11.12833 | 79.69691 | 37758 ft | 467 kts | 357° |
| 2026-05-07 11:19 | 11.19239 | 79.69237 | 37761 ft | 456 kts | 356° |
| 2026-05-07 11:20 | 11.25593 | 79.68783 | 37758 ft | 459 kts | 356° |
| 2026-05-07 11:20 | 11.31971 | 79.68329 | 37763 ft | 459 kts | 356° |
| 2026-05-07 11:21 | 11.38335 | 79.67877 | 37764 ft | 459 kts | 356° |
| 2026-05-07 11:21 | 11.44706 | 79.67424 | 37764 ft | 459 kts | 356° |
| 2026-05-07 11:22 | 11.51078 | 79.66971 | 37764 ft | 459 kts | 356° |
| 2026-05-07 11:22 | 11.57444 | 79.66518 | 37764 ft | 459 kts | 356° |
| 2026-05-07 11:23 | 11.63766 | 79.66069 | 37761 ft | 458 kts | 356° |
| 2026-05-07 11:23 | 11.70130 | 79.65616 | 37755 ft | 458 kts | 356° |
| 2026-05-07 11:24 | 11.76535 | 79.65159 | 37760 ft | 458 kts | 356° |
| 2026-05-07 11:24 | 11.82860 | 79.64708 | 37759 ft | 459 kts | 356° |
| 2026-05-07 11:25 | 11.89228 | 79.64254 | 37760 ft | 459 kts | 356° |
| 2026-05-07 11:25 | 11.95621 | 79.63797 | 37772 ft | 462 kts | 355° |
| 2026-05-07 11:26 | 12.02030 | 79.63338 | 37773 ft | 461 kts | 355° |
| 2026-05-07 11:26 | 12.08432 | 79.62881 | 37770 ft | 461 kts | 355° |
| 2026-05-07 11:27 | 12.14832 | 79.62427 | 37771 ft | 461 kts | 355° |
| 2026-05-07 11:27 | 12.21224 | 79.61971 | 37774 ft | 461 kts | 355° |
| 2026-05-07 11:28 | 12.27622 | 79.61513 | 37773 ft | 461 kts | 355° |
| 2026-05-07 11:28 | 12.34025 | 79.61056 | 37776 ft | 461 kts | 355° |
| 2026-05-07 11:29 | 12.40422 | 79.60597 | 37771 ft | 461 kts | 355° |
| 2026-05-07 11:29 | 12.46811 | 79.60140 | 37767 ft | 460 kts | 355° |
| 2026-05-07 11:30 | 12.53200 | 79.59682 | 37769 ft | 460 kts | 355° |
| 2026-05-07 11:30 | 12.59586 | 79.59224 | 37773 ft | 460 kts | 355° |
| 2026-05-07 11:31 | 12.65974 | 79.58767 | 37771 ft | 461 kts | 355° |
| 2026-05-07 11:31 | 12.72411 | 79.58305 | 37769 ft | 461 kts | 355° |
| 2026-05-07 11:32 | 12.82004 | 79.57616 | 37777 ft | 461 kts | 355° |
| 2026-05-07 11:33 | 12.88401 | 79.57156 | 37771 ft | 461 kts | 355° |
| 2026-05-07 11:33 | 12.94787 | 79.56698 | 37772 ft | 460 kts | 355° |
| 2026-05-07 11:34 | 13.01175 | 79.56239 | 37775 ft | 460 kts | 355° |
| 2026-05-07 11:34 | 13.07565 | 79.55778 | 37774 ft | 460 kts | 355° |
| 2026-05-07 11:35 | 13.13958 | 79.55317 | 37774 ft | 461 kts | 355° |
| 2026-05-07 11:35 | 13.20354 | 79.54856 | 37779 ft | 461 kts | 355° |
| 2026-05-07 11:36 | 13.26757 | 79.54395 | 37779 ft | 461 kts | 355° |
| 2026-05-07 11:36 | 13.33164 | 79.53933 | 37777 ft | 462 kts | 355° |
| 2026-05-07 11:37 | 13.39535 | 79.53473 | 37776 ft | 462 kts | 355° |
| 2026-05-07 11:37 | 13.45991 | 79.53007 | 37776 ft | 462 kts | 355° |
| 2026-05-07 11:38 | 13.52366 | 79.52547 | 37775 ft | 463 kts | 355° |
| 2026-05-07 11:38 | 13.58790 | 79.52082 | 37775 ft | 463 kts | 355° |
| 2026-05-07 11:39 | 13.65215 | 79.51617 | 37777 ft | 463 kts | 355° |
| 2026-05-07 11:39 | 13.71644 | 79.51153 | 37774 ft | 463 kts | 355° |
| 2026-05-07 11:40 | 13.78087 | 79.50687 | 37774 ft | 465 kts | 355° |
| 2026-05-07 11:40 | 13.84528 | 79.50220 | 37775 ft | 464 kts | 355° |
| 2026-05-07 11:41 | 13.90971 | 79.49754 | 37771 ft | 464 kts | 355° |
| 2026-05-07 11:41 | 13.97416 | 79.49287 | 37767 ft | 464 kts | 355° |
| 2026-05-07 11:42 | 14.03873 | 79.48821 | 37768 ft | 464 kts | 355° |
| 2026-05-07 11:42 | 14.10318 | 79.48356 | 37772 ft | 465 kts | 355° |
| 2026-05-07 11:43 | 14.16769 | 79.47888 | 37764 ft | 464 kts | 355° |
| 2026-05-07 11:43 | 14.23213 | 79.47418 | 37762 ft | 464 kts | 355° |
| 2026-05-07 11:44 | 14.29664 | 79.46947 | 37764 ft | 466 kts | 355° |
| 2026-05-07 11:44 | 14.36145 | 79.46469 | 37762 ft | 466 kts | 355° |
| 2026-05-07 11:45 | 14.42595 | 79.45993 | 37760 ft | 464 kts | 355° |
| 2026-05-07 11:45 | 14.49035 | 79.45523 | 37762 ft | 464 kts | 355° |
| 2026-05-07 11:46 | 14.55488 | 79.45064 | 37762 ft | 465 kts | 355° |
| 2026-05-07 11:46 | 14.61932 | 79.44597 | 37760 ft | 463 kts | 355° |
| 2026-05-07 11:47 | 14.68379 | 79.44127 | 37760 ft | 465 kts | 355° |
| 2026-05-07 11:47 | 14.73731 | 79.43737 | 37757 ft | 464 kts | 355° |
| 2026-05-07 11:48 | 14.80165 | 79.43267 | 37759 ft | 463 kts | 355° |
| 2026-05-07 11:48 | 14.86591 | 79.42797 | 37757 ft | 463 kts | 355° |
| 2026-05-07 11:49 | 14.93010 | 79.42282 | 37763 ft | 462 kts | 351° |
| 2026-05-07 11:49 | 14.99277 | 79.40917 | 37765 ft | 460 kts | 341° |
| 2026-05-07 11:50 | 15.05234 | 79.38530 | 37769 ft | 459 kts | 335° |
| 2026-05-07 11:50 | 15.11087 | 79.35905 | 37768 ft | 458 kts | 335° |
| 2026-05-07 11:51 | 15.16942 | 79.33286 | 37774 ft | 458 kts | 335° |
| 2026-05-07 11:51 | 15.22790 | 79.30669 | 37776 ft | 458 kts | 335° |
| 2026-05-07 11:52 | 15.28637 | 79.28050 | 37775 ft | 457 kts | 335° |
| 2026-05-07 11:52 | 15.34470 | 79.25432 | 37777 ft | 457 kts | 335° |
| 2026-05-07 11:53 | 15.40303 | 79.22810 | 37776 ft | 457 kts | 335° |
| 2026-05-07 11:53 | 15.46131 | 79.20190 | 37777 ft | 456 kts | 335° |
| 2026-05-07 11:54 | 15.51949 | 79.17586 | 37777 ft | 456 kts | 335° |
| 2026-05-07 11:54 | 15.57774 | 79.14991 | 37782 ft | 455 kts | 335° |
| 2026-05-07 11:55 | 15.63589 | 79.12394 | 37787 ft | 455 kts | 335° |
| 2026-05-07 11:55 | 15.69397 | 79.09800 | 37787 ft | 454 kts | 335° |
| 2026-05-07 11:56 | 15.75210 | 79.07200 | 37451 ft | 455 kts | 335° |
| 2026-05-07 11:56 | 15.78126 | 79.05895 | 36828 ft | 459 kts | 335° |
| 2026-05-07 11:56 | 15.81076 | 79.04575 | 35941 ft | 465 kts | 335° |
| 2026-05-07 11:56 | 15.84053 | 79.03242 | 35147 ft | 468 kts | 335° |
| 2026-05-07 11:57 | 15.87049 | 79.01900 | 34379 ft | 470 kts | 335° |
| 2026-05-07 11:57 | 15.90065 | 79.00547 | 33426 ft | 472 kts | 335° |
| 2026-05-07 11:57 | 15.93054 | 78.99208 | 32666 ft | 463 kts | 335° |
| 2026-05-07 11:57 | 15.96002 | 78.97888 | 31770 ft | 461 kts | 335° |
| 2026-05-07 11:58 | 15.98948 | 78.96568 | 30927 ft | 464 kts | 335° |
| 2026-05-07 11:58 | 16.01903 | 78.95243 | 30317 ft | 462 kts | 335° |
| 2026-05-07 11:58 | 16.04846 | 78.93923 | 29710 ft | 460 kts | 335° |
| 2026-05-07 11:58 | 16.07774 | 78.92609 | 29073 ft | 456 kts | 335° |
| 2026-05-07 11:59 | 16.10671 | 78.91309 | 28445 ft | 451 kts | 335° |
| 2026-05-07 11:59 | 16.13540 | 78.90021 | 27828 ft | 447 kts | 335° |
| 2026-05-07 11:59 | 16.16384 | 78.88744 | 27207 ft | 443 kts | 335° |
| 2026-05-07 11:59 | 16.19203 | 78.87477 | 26544 ft | 441 kts | 335° |
| 2026-05-07 12:00 | 16.22007 | 78.86217 | 25968 ft | 436 kts | 335° |
| 2026-05-07 12:00 | 16.24788 | 78.84966 | 25347 ft | 434 kts | 335° |
| 2026-05-07 12:00 | 16.27550 | 78.83724 | 24717 ft | 431 kts | 335° |
| 2026-05-07 12:00 | 16.30296 | 78.82488 | 24097 ft | 429 kts | 335° |
| 2026-05-07 12:01 | 16.33031 | 78.81258 | 23483 ft | 427 kts | 335° |
| 2026-05-07 12:01 | 16.35750 | 78.80035 | 22786 ft | 424 kts | 335° |
| 2026-05-07 12:01 | 16.38439 | 78.78825 | 22228 ft | 418 kts | 335° |
| 2026-05-07 12:01 | 16.41094 | 78.77630 | 21616 ft | 413 kts | 335° |
| 2026-05-07 12:02 | 16.43722 | 78.76447 | 21016 ft | 409 kts | 335° |
| 2026-05-07 12:02 | 16.46321 | 78.75274 | 20401 ft | 403 kts | 335° |
| 2026-05-07 12:02 | 16.48856 | 78.74129 | 19784 ft | 392 kts | 335° |
| 2026-05-07 12:02 | 16.51330 | 78.73013 | 19221 ft | 387 kts | 335° |
| 2026-05-07 12:03 | 16.53794 | 78.71900 | 18648 ft | 385 kts | 335° |
| 2026-05-07 12:03 | 16.56247 | 78.70791 | 18058 ft | 384 kts | 335° |
| 2026-05-07 12:03 | 16.58693 | 78.69686 | 17481 ft | 381 kts | 335° |
| 2026-05-07 12:03 | 16.61102 | 78.68599 | 17088 ft | 373 kts | 335° |
| 2026-05-07 12:04 | 16.63471 | 78.67529 | 16577 ft | 371 kts | 335° |
| 2026-05-07 12:04 | 16.65836 | 78.66458 | 16008 ft | 369 kts | 335° |
| 2026-05-07 12:04 | 16.68187 | 78.65392 | 15438 ft | 367 kts | 335° |
| 2026-05-07 12:04 | 16.70521 | 78.64333 | 14855 ft | 366 kts | 335° |
| 2026-05-07 12:05 | 16.72851 | 78.63277 | 14322 ft | 363 kts | 335° |
| 2026-05-07 12:05 | 16.75165 | 78.62227 | 13766 ft | 362 kts | 335° |
| 2026-05-07 12:05 | 16.77470 | 78.61180 | 13169 ft | 360 kts | 335° |
| 2026-05-07 12:05 | 16.79752 | 78.60144 | 12637 ft | 356 kts | 336° |
| 2026-05-07 12:06 | 16.82008 | 78.59120 | 12080 ft | 349 kts | 336° |
| 2026-05-07 12:06 | 16.84200 | 78.58124 | 11564 ft | 339 kts | 336° |
| 2026-05-07 12:06 | 16.86358 | 78.57144 | 11042 ft | 338 kts | 337° |
| 2026-05-07 12:06 | 16.88509 | 78.56165 | 10504 ft | 337 kts | 337° |
| 2026-05-07 12:07 | 16.90643 | 78.55194 | 10138 ft | 331 kts | 338° |
| 2026-05-07 12:07 | 16.92709 | 78.54248 | 10015 ft | 317 kts | 336° |
| 2026-05-07 12:07 | 16.94676 | 78.53328 | 9896 ft | 303 kts | 336° |
| 2026-05-07 12:07 | 16.96571 | 78.52446 | 9565 ft | 293 kts | 337° |
| 2026-05-07 12:08 | 16.98408 | 78.51618 | 9336 ft | 287 kts | 340° |
| 2026-05-07 12:08 | 17.00342 | 78.51075 | 9003 ft | 296 kts | 353° |
| 2026-05-07 12:08 | 17.02430 | 78.50953 | 8592 ft | 296 kts | 1° |
| 2026-05-07 12:08 | 17.04465 | 78.50948 | 8192 ft | 289 kts | 1° |
| 2026-05-07 12:09 | 17.06450 | 78.50921 | 7825 ft | 281 kts | 0° |
| 2026-05-07 12:09 | 17.08373 | 78.50882 | 7452 ft | 273 kts | 0° |
| 2026-05-07 12:09 | 17.10245 | 78.50839 | 7108 ft | 265 kts | 0° |
| 2026-05-07 12:09 | 17.12057 | 78.51006 | 6914 ft | 268 kts | 20° |
| 2026-05-07 12:10 | 17.13649 | 78.52018 | 6887 ft | 269 kts | 47° |
| 2026-05-07 12:10 | 17.14586 | 78.53646 | 6824 ft | 258 kts | 75° |
| 2026-05-07 12:10 | 17.14759 | 78.55462 | 6747 ft | 247 kts | 90° |
| 2026-05-07 12:10 | 17.14737 | 78.57252 | 6432 ft | 243 kts | 91° |
| 2026-05-07 12:11 | 17.14704 | 78.59003 | 5976 ft | 240 kts | 91° |
| 2026-05-07 12:11 | 17.14760 | 78.60733 | 5487 ft | 238 kts | 77° |
| 2026-05-07 12:11 | 17.15498 | 78.62259 | 5000 ft | 237 kts | 46° |
| 2026-05-07 12:11 | 17.16861 | 78.63093 | 4832 ft | 222 kts | 13° |
| 2026-05-07 12:12 | 17.18350 | 78.63191 | 4730 ft | 208 kts | 1° |
| 2026-05-07 12:12 | 17.19763 | 78.63176 | 4593 ft | 199 kts | 1° |
| 2026-05-07 12:12 | 17.21152 | 78.63057 | 4625 ft | 195 kts | 345° |
| 2026-05-07 12:12 | 17.22239 | 78.62333 | 4536 ft | 182 kts | 311° |
| 2026-05-07 12:13 | 17.22818 | 78.61224 | 4452 ft | 169 kts | 287° |
| 2026-05-07 12:13 | 17.23031 | 78.60068 | 4388 ft | 160 kts | 275° |
| 2026-05-07 12:13 | 17.23085 | 78.58951 | 4340 ft | 151 kts | 270° |
| 2026-05-07 12:13 | 17.23087 | 78.57873 | 4241 ft | 148 kts | 269° |
| 2026-05-07 12:14 | 17.23075 | 78.56782 | 4090 ft | 151 kts | 269° |
| 2026-05-07 12:14 | 17.23060 | 78.55693 | 3924 ft | 150 kts | 269° |
| 2026-05-07 12:14 | 17.23045 | 78.54604 | 3750 ft | 149 kts | 269° |
| 2026-05-07 12:14 | 17.23029 | 78.53528 | 3557 ft | 148 kts | 269° |
| 2026-05-07 12:15 | 17.23014 | 78.52453 | 3385 ft | 147 kts | 268° |
| 2026-05-07 12:15 | 17.22999 | 78.51382 | 3209 ft | 148 kts | 269° |
| 2026-05-07 12:15 | 17.22984 | 78.50316 | 3021 ft | 146 kts | 269° |
| 2026-05-07 12:15 | 17.22969 | 78.49257 | 2836 ft | 146 kts | 269° |
| 2026-05-07 12:16 | 17.22953 | 78.48184 | 2636 ft | 149 kts | 269° |
| 2026-05-07 12:16 | 17.22939 | 78.47119 | 2429 ft | 145 kts | 268° |
| 2026-05-07 12:16 | 17.22920 | 78.46048 | 2228 ft | 148 kts | 268° |
| 2026-05-07 12:16 | 17.22900 | 78.44958 | 2040 ft | 143 kts | 276° |
| 2026-05-07 12:17 | 17.22898 | 78.44117 | 2016 ft | 87 kts | 269° |
| 2026-05-07 12:17 | 17.22892 | 78.43677 | 2014 ft | 47 kts | 269° |
| 2026-05-07 12:17 | 17.22885 | 78.43361 | 2009 ft | 42 kts | 270° |
| 2026-05-07 12:17 | 17.22899 | 78.43099 | 2003 ft | 27 kts | 286° |
| 2026-05-07 12:18 | 17.22965 | 78.42938 | 2004 ft | 14 kts | 300° |
| 2026-05-07 12:18 | 17.22970 | 78.42928 | 2001 ft | 0 kts | 300° |
| 2026-05-07 12:19 | 17.22991 | 78.42891 | 2003 ft | 13 kts | 300° |
| 2026-05-07 12:19 | 17.23043 | 78.42795 | 2002 ft | 17 kts | 300° |
| 2026-05-07 12:20 | 17.23136 | 78.42733 | 2001 ft | 16 kts | 356° |
| 2026-05-07 12:20 | 17.23250 | 78.42730 | 2003 ft | 17 kts | 358° |
| 2026-05-07 12:20 | 17.23320 | 78.42700 | 2002 ft | 9 kts | 291° |
| 2026-05-07 12:20 | 17.23326 | 78.42645 | 2002 ft | 8 kts | 269° |
| 2026-05-07 12:21 | 17.23336 | 78.42599 | 2001 ft | 6 kts | 309° |
| 2026-05-07 12:21 | 17.23363 | 78.42550 | 2000 ft | 10 kts | 292° |
| 2026-05-07 12:21 | 17.23401 | 78.42490 | 2000 ft | 10 kts | 336° |
| 2026-05-07 12:21 | 17.23423 | 78.42488 | 2000 ft | 0 kts | 3° |